Time;durP1;ratioP1;P1;durP2;ratioP2;P2;SDS_P1;SDS_P2;PMS_P1;PMS_P2;Temp;Humidity;BMP_temperature;BMP_pressure;BME280_temperature;BME280_humidity;BME280_pressure;Samples;Min_cycle;Max_cycle;Signal;HPM_P1;HPM_P2
2021/09/27 00:01:25;;;;;;;7.60;3.55;;;;;;;11.59;64.10;100001.14;1802697;79;21123;-37
2021/09/27 00:03:52;;;;;;;6.03;3.05;;;;;;;11.53;64.32;100009.88;1802648;79;21029;-37
2021/09/27 00:06:19;;;;;;;10.25;3.05;;;;;;;11.52;64.37;100010.45;1802854;79;20934;-37
2021/09/27 00:08:45;;;;;;;6.40;2.95;;;;;;;11.54;64.37;100011.47;1802916;79;20977;-37
2021/09/27 00:11:18;;;;;;;11.55;3.42;;;;;;;11.57;64.20;100014.27;1802847;79;20961;-37
2021/09/27 00:13:50;;;;;;;8.38;3.02;;;;;;;11.57;64.11;100016.22;1802599;79;21758;-37
2021/09/27 00:16:17;;;;;;;6.37;3.08;;;;;;;11.52;64.02;100013.17;1802717;79;21486;-37
2021/09/27 00:18:44;;;;;;;5.87;3.30;;;;;;;11.49;63.99;100019.30;1802801;79;20949;-37
2021/09/27 00:21:21;;;;;;;7.20;3.02;;;;;;;11.46;64.26;100017.30;1802617;79;20922;-37
2021/09/27 00:23:48;;;;;;;6.83;3.05;;;;;;;11.44;64.32;100022.28;1802673;79;20969;-37
2021/09/27 00:26:16;;;;;;;6.58;3.02;;;;;;;11.41;64.30;100023.55;1779065;79;21777;-37
2021/09/27 00:28:43;;;;;;;6.03;2.80;;;;;;;11.33;64.05;100023.36;1778492;80;21016;-37
2021/09/27 00:31:09;;;;;;;8.00;3.20;;;;;;;11.25;64.04;100013.45;1785414;78;21063;-37
2021/09/27 00:33:36;;;;;;;8.83;2.87;;;;;;;11.19;64.11;100021.62;1803042;79;21009;-37
2021/09/27 00:36:03;;;;;;;7.12;2.80;;;;;;;11.17;64.32;100023.13;1802628;79;21025;-37
2021/09/27 00:38:30;;;;;;;9.68;2.80;;;;;;;11.18;64.21;100030.89;1802832;79;21774;-37
2021/09/27 00:41:01;;;;;;;5.85;3.05;;;;;;;11.19;64.11;100027.61;1802857;79;21757;-37
2021/09/27 00:43:30;;;;;;;4.85;2.62;;;;;;;11.17;64.24;100032.62;1803055;79;21004;-37
2021/09/27 00:46:00;;;;;;;4.90;2.80;;;;;;;11.16;64.41;100024.25;1802894;79;21060;-37
2021/09/27 00:48:27;;;;;;;6.45;3.02;;;;;;;11.15;64.60;100032.16;1803082;79;21025;-37
2021/09/27 00:50:57;;;;;;;6.03;3.00;;;;;;;11.12;64.83;100024.73;1802694;79;21769;-37
2021/09/27 00:53:53;;;;;;;4.87;2.83;;;;;;;11.02;64.90;100030.65;1775485;79;20913;-37
2021/09/27 00:56:29;;;;;;;7.67;3.08;;;;;;;10.98;64.83;100021.62;1761777;80;21013;-37
2021/09/27 00:58:57;;;;;;;5.97;3.25;;;;;;;10.90;64.82;100025.48;1760366;81;21028;-37
2021/09/27 01:01:23;;;;;;;7.42;3.05;;;;;;;10.86;64.83;100023.24;1760399;80;21504;-37
2021/09/27 01:03:51;;;;;;;5.58;2.85;;;;;;;10.86;64.65;100030.02;1760565;80;21072;-37
2021/09/27 01:06:41;;;;;;;7.33;2.60;;;;;;;10.89;64.73;100030.68;1760328;81;21069;-37
2021/09/27 01:09:45;;;;;;;5.65;2.60;;;;;;;10.95;64.49;100031.80;1760145;81;21597;-37
2021/09/27 01:12:29;;;;;;;5.05;2.65;;;;;;;10.92;64.62;100030.57;1759797;81;21016;-37
2021/09/27 01:15:28;;;;;;;4.78;2.95;;;;;;;10.89;64.69;100036.11;1782743;78;21060;-37
2021/09/27 01:18:20;;;;;;;5.15;2.87;;;;;;;10.87;64.64;100034.88;1767467;79;21220;-38
2021/09/27 01:21:21;;;;;;;8.15;4.30;;;;;;;10.81;64.83;100032.98;1790213;79;21025;-38
2021/09/27 01:24:14;;;;;;;5.30;3.50;;;;;;;10.76;64.96;100035.94;1774824;80;20968;-38
2021/09/27 01:27:04;;;;;;;7.87;3.62;;;;;;;10.70;64.94;100038.66;1782762;80;21073;-38
2021/09/27 01:30:13;;;;;;;7.47;3.47;;;;;;;10.62;65.08;100038.23;1789539;80;21078;-38
2021/09/27 01:32:48;;;;;;;7.72;3.35;;;;;;;10.55;65.09;100042.11;1789743;80;21073;-38
2021/09/27 01:36:02;;;;;;;5.45;2.85;;;;;;;10.49;65.02;100043.47;1789583;80;21478;-38
2021/09/27 01:38:57;;;;;;;9.08;3.00;;;;;;;10.51;64.99;100055.30;1789675;80;21017;-38
2021/09/27 01:41:57;;;;;;;6.62;3.00;;;;;;;10.47;64.98;100056.56;1789589;80;21069;-38
2021/09/27 01:44:35;;;;;;;7.97;2.67;;;;;;;10.44;64.96;100054.55;1783786;80;21018;-38
2021/09/27 01:47:10;;;;;;;5.72;2.77;;;;;;;10.40;64.84;100049.58;1693169;84;21806;-38
2021/09/27 01:49:57;;;;;;;9.25;2.70;;;;;;;10.35;65.06;100055.23;1718894;82;21024;-38
2021/09/27 01:52:34;;;;;;;4.62;2.45;;;;;;;10.29;65.09;100059.30;1732663;82;21559;-38
2021/09/27 01:55:06;;;;;;;5.83;2.75;;;;;;;10.23;65.15;100064.16;1743887;81;20993;-38
2021/09/27 01:57:56;;;;;;;6.87;2.50;;;;;;;10.19;65.25;100067.88;1750531;81;21044;-38
2021/09/27 02:00:26;;;;;;;;;;;;;;;10.18;65.32;100071.72;1754633;81;21140;-38
2021/09/27 02:03:27;;;;;;;3.50;1.90;;;;;;;10.19;65.37;100067.88;1751869;81;20186;-38
2021/09/27 02:06:24;;;;;;;3.35;2.52;;;;;;;10.11;65.72;100071.47;1751979;81;21273;-38
2021/09/27 02:09:11;;;;;;;4.40;2.27;;;;;;;10.08;66.16;100072.13;1751912;81;21786;-38
2021/09/27 02:11:41;;;;;;;7.37;2.75;;;;;;;10.03;66.11;100073.94;1718274;83;21064;-38
2021/09/27 02:14:28;;;;;;;2.72;2.37;;;;;;;10.02;65.79;100077.77;1736027;81;20980;-38
2021/09/27 02:17:26;;;;;;;4.72;2.87;;;;;;;9.97;65.70;100072.58;1722283;83;21099;-38
2021/09/27 02:20:22;;;;;;;6.17;2.83;;;;;;;9.91;65.87;100069.89;1721932;83;21028;-38
2021/09/27 02:23:02;;;;;;;5.28;2.30;;;;;;;9.85;66.15;100067.73;1722267;82;20973;-38
2021/09/27 02:25:33;;;;;;;4.25;2.15;;;;;;;9.81;66.25;100078.45;1721837;83;21492;-38
2021/09/27 02:28:06;;;;;;;5.70;2.15;;;;;;;9.83;66.18;100085.66;1728151;81;21803;-38
2021/09/27 02:30:47;;;;;;;7.33;2.27;;;;;;;9.85;66.32;100080.70;1751585;81;21559;-38
2021/09/27 02:34:01;;;;;;;4.25;2.20;;;;;;;9.81;66.56;100083.86;1754236;81;21502;-38
2021/09/27 02:36:32;;;;;;;6.53;2.15;;;;;;;9.78;66.65;100076.98;1737641;82;20958;-38
2021/09/27 02:39:24;;;;;;;6.50;2.30;;;;;;;9.70;66.69;100078.65;1732214;82;21538;-38
2021/09/27 02:42:08;;;;;;;3.37;2.12;;;;;;;9.68;66.70;100086.33;1737953;82;21065;-38
2021/09/27 02:44:35;;;;;;;4.92;2.30;;;;;;;9.62;66.75;100086.88;1730965;82;20998;-38
2021/09/27 02:47:04;;;;;;;4.15;2.05;;;;;;;9.57;67.00;100086.52;1737709;82;21587;-38
2021/09/27 02:49:43;;;;;;;4.15;2.25;;;;;;;9.57;66.95;100085.17;1737640;82;21053;-38
2021/09/27 02:52:06;;;;;;;4.55;2.37;;;;;;;9.59;66.96;100085.61;1745199;82;21001;-38
2021/09/27 02:54:37;;;;;;;4.78;2.40;;;;;;;9.58;66.89;100084.81;1745923;82;21088;-38
2021/09/27 02:57:16;;;;;;;4.42;2.25;;;;;;;9.59;66.81;100087.75;1741126;82;20973;-38
2021/09/27 03:00:07;;;;;;;5.70;2.12;;;;;;;9.57;66.69;100087.87;1739497;82;21025;-38
2021/09/27 03:02:58;;;;;;;5.65;2.30;;;;;;;9.53;66.75;100089.67;1765878;81;21018;-38
2021/09/27 03:05:53;;;;;;;5.25;2.25;;;;;;;9.47;66.90;100093.70;1748657;82;21009;-38
2021/09/27 03:08:56;;;;;;;3.92;1.90;;;;;;;9.46;66.88;100094.83;1829726;78;21782;-38
2021/09/27 03:11:48;;;;;;;4.55;2.27;;;;;;;9.47;66.98;100088.30;1829382;78;21499;-38
2021/09/27 03:14:46;;;;;;;4.95;2.47;;;;;;;9.41;67.13;100093.68;1820962;78;20976;-37
2021/09/27 03:17:59;;;;;;;3.92;2.20;;;;;;;9.34;67.31;100094.24;1789272;79;21524;-37
2021/09/27 03:20:50;;;;;;;4.65;2.20;;;;;;;9.29;67.35;100097.71;1787009;80;21093;-38
2021/09/27 03:23:56;;;;;;;6.12;2.40;;;;;;;9.23;67.33;100096.33;1774785;80;21113;-37
2021/09/27 03:26:43;;;;;;;6.12;2.00;;;;;;;9.23;67.30;100101.18;1774620;80;21067;-38
2021/09/27 03:29:18;;;;;;;6.22;2.50;;;;;;;9.23;67.00;100104.45;1774739;80;20968;-38
2021/09/27 03:32:11;;;;;;;5.30;2.40;;;;;;;9.28;66.93;100097.48;1774802;80;20980;-38
2021/09/27 03:35:06;;;;;;;5.65;2.20;;;;;;;9.31;66.65;100098.95;1773564;80;21519;-38
2021/09/27 03:38:03;;;;;;;7.65;2.72;;;;;;;9.28;66.68;100096.12;1774761;80;21101;-38
2021/09/27 03:40:35;;;;;;;4.40;2.60;;;;;;;9.26;66.60;100098.36;1774565;80;21007;-38
2021/09/27 03:43:25;;;;;;;6.87;2.45;;;;;;;9.23;66.55;100099.83;1775137;80;21070;-38
2021/09/27 03:46:20;;;;;;;4.58;2.30;;;;;;;9.22;66.38;100097.45;1828215;78;21030;-37
2021/09/27 03:49:18;;;;;;;4.35;2.55;;;;;;;9.18;66.27;100100.03;1829633;78;21539;-37
2021/09/27 03:52:08;;;;;;;5.58;2.37;;;;;;;9.11;66.41;100108.67;1763539;81;21137;-37
2021/09/27 03:54:51;;;;;;;2.37;1.80;;;;;;;9.06;66.57;100108.87;1764974;81;20989;-38
2021/09/27 03:57:32;;;;;;;5.67;2.30;;;;;;;9.08;66.64;100107.98;1773618;80;20980;-38
2021/09/27 04:00:12;;;;;;;4.47;2.50;;;;;;;9.06;66.77;100118.33;1780934;77;22074;-38
2021/09/27 04:02:56;;;;;;;4.08;2.25;;;;;;;9.06;66.64;100114.28;1776095;80;21040;-37
2021/09/27 04:05:44;;;;;;;4.05;2.47;;;;;;;9.03;66.90;100108.19;1736105;80;21138;-38
2021/09/27 04:08:21;;;;;;;3.80;2.30;;;;;;;9.01;67.03;100116.39;1775970;80;21577;-37
2021/09/27 04:11:24;;;;;;;5.17;2.40;;;;;;;8.96;67.18;100113.88;1767583;80;20972;-38
2021/09/27 04:14:03;;;;;;;3.72;2.10;;;;;;;9.01;66.98;100122.59;1786579;77;21000;-38
2021/09/27 04:17:01;;;;;;;5.08;2.30;;;;;;;9.07;66.60;100121.83;1841217;77;21009;-37
2021/09/27 04:19:42;;;;;;;5.20;2.62;;;;;;;9.10;66.41;100126.02;1841455;77;21074;-38
2021/09/27 04:22:25;;;;;;;4.53;2.25;;;;;;;9.10;66.51;100127.37;1741691;81;21554;-38
2021/09/27 04:25:18;;;;;;;6.17;2.42;;;;;;;9.09;66.68;100120.40;1751030;82;21044;-38
2021/09/27 04:28:15;;;;;;;5.97;2.87;;;;;;;9.05;66.96;100120.80;1750747;82;21072;-38
2021/09/27 04:31:05;;;;;;;4.42;1.98;;;;;;;9.01;66.88;100132.05;1750878;82;21598;-38
2021/09/27 04:33:52;;;;;;;9.23;2.15;;;;;;;8.93;67.19;100136.98;1751008;81;21787;-38
2021/09/27 04:36:29;;;;;;;5.58;2.42;;;;;;;8.94;67.40;100126.95;1750816;82;21029;-38
2021/09/27 04:39:01;;;;;;;5.20;2.37;;;;;;;8.97;67.48;100121.67;1750097;82;21049;-38
2021/09/27 04:41:51;;;;;;;4.53;2.20;;;;;;;8.98;67.56;100118.41;1750879;82;21353;-38
2021/09/27 04:44:38;;;;;;;3.55;2.27;;;;;;;8.99;67.69;100123.50;1749719;80;21104;-38
2021/09/27 04:47:53;;;;;;;4.95;2.50;;;;;;;9.00;67.61;100122.94;1751023;82;21147;-38
2021/09/27 04:51:01;;;;;;;4.37;2.27;;;;;;;8.98;67.76;100117.85;1750878;82;21016;-38
2021/09/27 04:53:50;;;;;;;5.80;1.98;;;;;;;8.94;67.91;100120.98;1720921;83;20976;-38
2021/09/27 04:56:45;;;;;;;5.75;2.25;;;;;;;8.95;67.80;100120.43;1717487;82;21500;-38
2021/09/27 05:00:06;;;;;;;4.75;2.50;;;;;;;9.01;67.93;100119.89;1703259;84;21540;-38
2021/09/27 05:03:07;;;;;;;5.42;2.58;;;;;;;9.00;68.11;100118.33;1717084;82;23049;-38
2021/09/27 05:06:04;;;;;;;4.22;2.35;;;;;;;8.97;68.48;100117.61;1732156;82;21489;-38
2021/09/27 05:09:08;;;;;;;3.47;2.60;;;;;;;8.95;68.75;100123.93;1731359;82;21017;-38
2021/09/27 05:12:14;;;;;;;4.00;2.52;;;;;;;8.98;68.81;100117.85;1732131;82;21010;-38
2021/09/27 05:15:26;;;;;;;3.35;2.37;;;;;;;9.06;68.60;100121.59;1754067;81;21049;-38
2021/09/27 05:18:35;;;;;;;5.40;2.37;;;;;;;9.19;68.58;100127.88;1770686;81;21982;-38
2021/09/27 05:21:39;;;;;;;5.53;2.40;;;;;;;9.22;68.95;100128.56;1704134;83;21032;-38
2021/09/27 05:24:32;;;;;;;12.23;2.52;;;;;;;9.26;69.05;100122.70;1735888;82;20958;-38
2021/09/27 05:27:16;;;;;;;4.40;2.40;;;;;;;9.29;68.96;100124.77;1724417;82;20995;-37
2021/09/27 05:30:24;;;;;;;5.55;2.55;;;;;;;9.31;69.03;100134.12;1742727;82;21033;-38
2021/09/27 05:33:37;;;;;;;3.95;2.85;;;;;;;9.38;69.09;100132.25;1742456;82;21085;-37
2021/09/27 05:36:22;;;;;;;6.22;2.90;;;;;;;9.45;69.20;100139.25;1742777;81;21519;-38
2021/09/27 05:39:09;;;;;;;4.95;2.80;;;;;;;9.51;69.47;100130.60;1743126;82;21515;-38
2021/09/27 05:42:20;;;;;;;4.72;3.42;;;;;;;9.57;69.57;100129.27;1725974;82;21050;-38
2021/09/27 05:45:10;;;;;;;6.28;3.05;;;;;;;9.61;69.72;100132.09;1742197;80;21032;-38
2021/09/27 05:48:08;;;;;;;6.78;2.87;;;;;;;9.67;69.97;100130.77;1741106;82;20977;-38
2021/09/27 05:51:05;;;;;;;4.95;2.55;;;;;;;9.81;70.11;100132.61;1761543;80;20978;-38
2021/09/27 05:54:01;;;;;;;6.67;2.90;;;;;;;9.94;70.22;100130.70;1722357;83;21043;-38
2021/09/27 05:56:57;;;;;;;3.85;2.40;;;;;;;10.03;70.21;100128.69;1721431;82;21081;-38
2021/09/27 05:59:38;;;;;;;6.60;2.33;;;;;;;10.10;70.05;100121.36;1741142;81;21057;-38
2021/09/27 06:02:16;;;;;;;4.90;2.60;;;;;;;10.17;69.91;100124.32;1826424;78;21941;-38
2021/09/27 06:05:26;;;;;;;5.95;2.72;;;;;;;10.26;69.98;100142.05;1813107;78;20983;-38
2021/09/27 06:08:22;;;;;;;2.75;2.17;;;;;;;10.41;69.95;100139.23;1791323;79;21012;-38
2021/09/27 06:11:23;;;;;;;5.08;2.17;;;;;;;10.53;69.78;100143.31;1791570;78;21350;-38
2021/09/27 06:13:50;;;;;;;3.58;2.58;;;;;;;10.65;69.74;100154.14;1797313;79;21064;-38
2021/09/27 06:16:37;;;;;;;5.28;2.05;;;;;;;10.76;69.64;100143.62;1797002;79;21119;-38
2021/09/27 06:19:24;;;;;;;3.10;1.90;;;;;;;10.87;69.07;100142.83;1796816;79;20899;-38
2021/09/27 06:22:10;;;;;;;2.70;1.60;;;;;;;11.05;68.61;100136.56;1796883;79;21004;-38
2021/09/27 06:25:07;;;;;;;3.08;2.20;;;;;;;11.21;68.19;100131.20;1795238;79;21469;-38
2021/09/27 06:27:53;;;;;;;5.22;1.62;;;;;;;11.33;67.76;100123.00;1795432;79;20945;-38
2021/09/27 06:30:53;;;;;;;2.80;1.80;;;;;;;11.44;67.58;100130.09;1796974;79;21158;-38
2021/09/27 06:33:42;;;;;;;6.85;2.10;;;;;;;11.51;67.32;100124.30;1797026;79;21021;-38
2021/09/27 06:36:12;;;;;;;3.90;1.72;;;;;;;11.55;66.67;100123.83;1797475;78;21025;-38
2021/09/27 06:38:39;;;;;;;2.45;1.62;;;;;;;11.66;66.55;100131.70;1772460;80;21103;-38
2021/09/27 06:41:10;;;;;;;2.55;1.45;;;;;;;11.82;66.34;100132.30;1772457;81;21088;-38
2021/09/27 06:43:36;;;;;;;4.08;1.82;;;;;;;11.96;65.99;100132.09;1778961;78;21097;-38
2021/09/27 06:46:03;;;;;;;3.42;1.72;;;;;;;12.08;65.22;100133.95;1796881;79;20950;-38
2021/09/27 06:48:29;;;;;;;1.90;1.45;;;;;;;12.17;65.28;100135.36;1796962;79;20988;-38
2021/09/27 06:50:57;;;;;;;3.45;1.67;;;;;;;12.26;64.61;100129.74;1795858;79;21016;-38
2021/09/27 06:53:25;;;;;;;2.98;1.95;;;;;;;12.30;63.74;100129.82;1774639;80;21040;-38
2021/09/27 06:55:52;;;;;;;4.67;1.65;;;;;;;12.29;63.69;100130.41;1774912;80;21772;-38
2021/09/27 06:58:21;;;;;;;2.95;1.20;;;;;;;12.03;63.58;100086.66;1792627;79;21008;-38
2021/09/27 07:00:47;;;;;;;3.30;1.50;;;;;;;12.37;63.75;100128.08;1788522;77;20921;-38
2021/09/27 07:03:14;;;;;;;3.87;1.47;;;;;;;12.48;63.52;100133.77;1784316;80;21126;-38
2021/09/27 07:05:40;;;;;;;2.47;1.30;;;;;;;12.64;63.27;100125.79;1784311;80;21083;-38
2021/09/27 07:08:07;;;;;;;2.40;1.15;;;;;;;12.79;62.33;100120.66;1784634;80;21069;-38
2021/09/27 07:10:34;;;;;;;1.80;1.05;;;;;;;12.87;61.14;100125.13;1778292;80;21060;-38
2021/09/27 07:13:00;;;;;;;3.45;1.20;;;;;;;12.94;60.62;100129.36;1747183;82;21007;-38
2021/09/27 07:15:27;;;;;;;2.15;1.37;;;;;;;13.00;59.93;100129.30;1737341;82;21000;-38
2021/09/27 07:17:53;;;;;;;1.82;1.20;;;;;;;13.06;60.32;100136.05;1747215;82;21039;-38
2021/09/27 07:20:25;;;;;;;1.22;0.90;;;;;;;13.13;59.81;100132.70;1737211;82;21139;-38
2021/09/27 07:22:54;;;;;;;1.98;1.30;;;;;;;13.20;59.59;100132.28;1746963;82;21087;-38
2021/09/27 07:25:21;;;;;;;4.20;1.30;;;;;;;13.20;59.29;100121.39;1737359;82;20979;-38
2021/09/27 07:27:50;;;;;;;4.37;1.12;;;;;;;13.31;59.46;100134.63;1746970;82;21079;-38
2021/09/27 07:30:17;;;;;;;2.13;1.20;;;;;;;13.33;58.72;100136.44;1741691;79;21031;-38
2021/09/27 07:32:44;;;;;;;3.12;1.30;;;;;;;13.33;59.07;100140.52;1767691;80;21262;-38
2021/09/27 07:35:14;;;;;;;3.15;1.10;;;;;;;13.35;58.44;100140.17;1799027;79;20941;-38
2021/09/27 07:37:41;;;;;;;2.10;1.30;;;;;;;13.34;58.11;100139.38;1767712;81;21003;-38
2021/09/27 07:40:12;;;;;;;2.90;1.00;;;;;;;13.37;58.04;100144.09;1799477;79;21037;-38
2021/09/27 07:42:39;;;;;;;1.50;1.00;;;;;;;13.39;58.12;100136.38;1767507;80;21483;-38
2021/09/27 07:45:08;;;;;;;2.70;1.30;;;;;;;13.40;57.78;100134.44;1799524;79;21147;-38
2021/09/27 07:47:34;;;;;;;2.62;1.25;;;;;;;13.41;57.72;100137.35;1767855;81;21083;-38
2021/09/27 07:50:01;;;;;;;1.20;1.10;;;;;;;13.45;57.74;100137.66;1799495;79;20999;-38
2021/09/27 07:52:27;;;;;;;2.95;1.42;;;;;;;13.53;58.10;100133.13;1753868;81;21041;-38
2021/09/27 07:54:54;;;;;;;4.17;1.20;;;;;;;13.65;58.15;100139.01;1778021;80;21549;-38
2021/09/27 07:57:20;;;;;;;3.33;1.10;;;;;;;13.71;57.74;100138.91;1763840;81;21156;-38
2021/09/27 07:59:50;;;;;;;1.67;1.22;;;;;;;13.71;57.35;100133.45;1751524;81;21506;-38
2021/09/27 08:02:18;;;;;;;2.35;1.20;;;;;;;13.71;57.85;100138.91;1750886;81;20965;-38
2021/09/27 08:04:45;;;;;;;1.62;1.12;;;;;;;13.74;57.68;100138.20;1751518;81;20969;-38
2021/09/27 08:07:12;;;;;;;2.08;0.95;;;;;;;13.79;57.25;100148.81;1743276;81;20996;-38
2021/09/27 08:09:39;;;;;;;2.87;1.15;;;;;;;13.82;57.15;100152.16;1708889;82;21142;-38
2021/09/27 08:12:07;;;;;;;4.20;1.02;;;;;;;13.76;56.88;100153.59;1708940;84;21019;-38
2021/09/27 08:14:34;;;;;;;1.77;1.10;;;;;;;13.69;57.38;100150.19;1709024;84;21039;-38
2021/09/27 08:17:00;;;;;;;3.95;1.47;;;;;;;13.64;57.00;100149.11;1709081;84;21035;-38
2021/09/27 08:19:27;;;;;;;1.87;1.27;;;;;;;13.57;57.58;100145.45;1708981;84;20981;-38
2021/09/27 08:21:53;;;;;;;3.15;1.67;;;;;;;13.51;57.77;100144.95;1709002;84;21136;-39
2021/09/27 08:24:20;;;;;;;1.95;1.10;;;;;;;13.51;57.95;100148.27;1709263;82;21047;-38
2021/09/27 08:26:46;;;;;;;4.03;1.22;;;;;;;13.53;57.86;100147.32;1709065;84;20992;-38
2021/09/27 08:29:13;;;;;;;1.60;0.98;;;;;;;13.55;57.28;100151.84;1757841;80;21064;-38
2021/09/27 08:31:41;;;;;;;1.42;1.07;;;;;;;13.59;57.55;100152.70;1757377;81;21054;-38
2021/09/27 08:34:08;;;;;;;1.32;1.10;;;;;;;13.62;57.09;100158.21;1757441;81;21126;-38
2021/09/27 08:36:35;;;;;;;1.25;1.00;;;;;;;13.62;57.52;100162.30;1757482;81;21028;-38
2021/09/27 08:39:03;;;;;;;1.85;1.00;;;;;;;13.62;57.16;100161.51;1757595;81;21011;-38
2021/09/27 08:41:54;;;;;;;1.27;1.10;;;;;;;13.64;57.10;100159.22;1757483;81;21574;-38
2021/09/27 08:44:45;;;;;;;4.97;1.45;;;;;;;13.63;57.71;100164.45;1642385;86;21066;-38
2021/09/27 08:47:39;;;;;;;1.52;0.98;;;;;;;13.64;58.08;100161.95;1683436;84;21116;-38
2021/09/27 08:50:31;;;;;;;1.30;0.98;;;;;;;13.64;57.11;100163.31;1719013;83;20985;-38
2021/09/27 08:53:08;;;;;;;1.98;0.82;;;;;;;13.59;57.39;100158.94;1708930;84;21015;-38
2021/09/27 08:55:35;;;;;;;1.05;0.90;;;;;;;13.57;57.83;100155.77;1753966;81;21510;-38
2021/09/27 08:58:21;;;;;;;1.25;0.80;;;;;;;13.59;57.54;100152.13;1755736;81;21712;-38
2021/09/27 09:00:53;;;;;;;1.15;0.98;;;;;;;13.61;57.00;100157.20;1752941;80;21137;-38
2021/09/27 09:03:45;;;;;;;1.60;1.10;;;;;;;13.55;57.39;100154.58;1745394;81;21012;-38
2021/09/27 09:06:23;;;;;;;1.60;1.25;;;;;;;13.55;57.71;100151.84;1753257;81;20944;-38
2021/09/27 09:09:14;;;;;;;1.75;0.88;;;;;;;13.59;57.86;100149.98;1772666;80;20893;-38
2021/09/27 09:11:57;;;;;;;3.12;1.12;;;;;;;13.64;57.14;100154.56;1784147;80;21094;-38
2021/09/27 09:14:44;;;;;;;1.42;0.80;;;;;;;13.70;57.18;100150.98;1769184;80;21857;-38
2021/09/27 09:17:24;;;;;;;3.72;0.90;;;;;;;13.72;56.84;100152.75;1752854;81;20940;-38
2021/09/27 09:19:50;;;;;;;1.95;0.72;;;;;;;13.78;56.78;100155.40;1753043;81;21039;-38
2021/09/27 09:22:22;;;;;;;1.82;0.70;;;;;;;13.81;56.43;100144.56;1752919;81;21095;-38
2021/09/27 09:24:51;;;;;;;1.72;0.72;;;;;;;13.87;55.15;100147.78;1748532;81;20940;-38
2021/09/27 09:27:17;;;;;;;1.22;0.72;;;;;;;13.92;55.09;100143.39;1753033;81;21770;-38
2021/09/27 09:29:45;;;;;;;1.50;0.78;;;;;;;13.97;54.81;100145.03;1762609;80;21518;-38
2021/09/27 09:32:25;;;;;;;1.65;0.72;;;;;;;13.97;54.09;100143.09;1763713;80;21095;-38
2021/09/27 09:35:21;;;;;;;1.27;0.82;;;;;;;14.01;54.55;100138.48;1752960;81;21031;-38
2021/09/27 09:38:07;;;;;;;0.68;0.50;;;;;;;14.17;54.25;100136.44;1752896;81;21060;-38
2021/09/27 09:40:43;;;;;;;0.55;0.50;;;;;;;14.46;53.64;100141.80;1753005;80;21177;-38
2021/09/27 09:43:13;;;;;;;0.88;0.53;;;;;;;14.78;52.24;100136.81;1745535;81;21039;-38
2021/09/27 09:45:44;;;;;;;1.25;0.70;;;;;;;15.07;50.48;100129.79;1752929;81;21031;-38
2021/09/27 09:48:24;;;;;;;2.17;1.05;;;;;;;15.35;50.37;100132.08;1753186;81;20964;-38
2021/09/27 09:50:55;;;;;;;0.80;0.60;;;;;;;15.30;49.23;100096.31;1752825;81;20988;-38
2021/09/27 09:53:32;;;;;;;1.52;1.42;;;;;;;15.61;48.69;100130.66;1753293;81;21098;-38
2021/09/27 09:56:06;;;;;;;1.00;0.80;;;;;;;15.58;48.58;100132.22;1753468;80;21048;-38
2021/09/27 09:58:46;;;;;;;0.85;0.68;;;;;;;15.50;48.36;100137.92;1752423;80;21001;-38
2021/09/27 10:01:33;;;;;;;1.05;0.70;;;;;;;15.31;48.13;100142.19;1777492;80;20988;-38
2021/09/27 10:04:07;;;;;;;0.82;0.72;;;;;;;15.13;49.27;100143.34;1777602;80;21514;-38
2021/09/27 10:06:48;;;;;;;1.35;0.80;;;;;;;15.02;49.60;100147.29;1750545;80;21101;-38
2021/09/27 10:09:36;;;;;;;;;;;;;;;14.92;50.01;100148.50;1749675;82;21103;-38
2021/09/27 10:12:09;;;;;;;0.70;0.60;;;;;;;14.82;50.13;100148.56;1746928;82;20566;-38
2021/09/27 10:14:45;;;;;;;3.22;0.90;;;;;;;14.60;51.07;100148.84;1746816;81;21031;-38
2021/09/27 10:17:34;;;;;;;3.10;0.90;;;;;;;14.59;51.68;100149.98;1746723;80;21083;-38
2021/09/27 10:20:23;;;;;;;1.57;0.90;;;;;;;14.57;51.41;100148.19;1746911;81;21609;-38
2021/09/27 10:22:58;;;;;;;1.05;0.80;;;;;;;14.54;51.05;100148.94;1746857;82;21054;-38
2021/09/27 10:25:41;;;;;;;1.37;0.90;;;;;;;14.55;51.40;100146.42;1752155;80;21099;-36
2021/09/27 10:28:14;;;;;;;2.42;1.00;;;;;;;14.57;51.50;100139.25;1749151;80;21021;-36
2021/09/27 10:30:54;;;;;;;2.35;1.40;;;;;;;14.59;51.32;100134.19;1756303;80;21048;-36
2021/09/27 10:33:28;;;;;;;1.30;1.00;;;;;;;14.61;51.50;100135.41;1777808;80;21164;-36
2021/09/27 10:36:07;;;;;;;3.37;1.15;;;;;;;14.66;50.99;100137.03;1771854;80;21028;-36
2021/09/27 10:38:45;;;;;;;1.72;1.35;;;;;;;14.67;50.91;100135.28;1760379;80;20977;-36
2021/09/27 10:41:24;;;;;;;1.85;0.98;;;;;;;14.69;50.75;100133.56;1746858;82;21012;-37
2021/09/27 10:43:55;;;;;;;2.00;1.30;;;;;;;14.68;50.41;100131.98;1746157;80;21104;-36
2021/09/27 10:46:26;;;;;;;1.80;1.10;;;;;;;14.66;50.79;100133.73;1774315;80;21782;-36
2021/09/27 10:48:54;;;;;;;2.83;1.00;;;;;;;14.65;50.52;100130.00;1776669;80;21490;-36
2021/09/27 10:51:29;;;;;;;2.58;1.05;;;;;;;14.66;51.00;100139.77;1777532;80;20964;-36
2021/09/27 10:54:04;;;;;;;1.85;1.32;;;;;;;14.66;51.16;100136.47;1767563;80;21041;-36
2021/09/27 10:56:41;;;;;;;1.85;1.15;;;;;;;14.66;51.30;100136.47;1737057;80;21047;-37
2021/09/27 10:59:14;;;;;;;1.30;1.00;;;;;;;14.66;51.08;100135.67;1754630;81;21784;-36
2021/09/27 11:01:57;;;;;;;1.07;0.88;;;;;;;14.65;51.16;100143.64;1761132;80;21557;-36
2021/09/27 11:04:42;;;;;;;1.52;1.00;;;;;;;14.66;50.84;100135.67;1760467;81;20964;-36
2021/09/27 11:07:43;;;;;;;1.72;1.30;;;;;;;14.65;51.00;100147.16;1760734;80;21027;-36
2021/09/27 11:10:24;;;;;;;0.98;0.80;;;;;;;14.65;51.64;100145.80;1783316;80;21043;-36
2021/09/27 11:12:52;;;;;;;1.82;1.07;;;;;;;14.64;51.69;100143.42;1763939;80;21997;-36
2021/09/27 11:15:35;;;;;;;1.25;0.90;;;;;;;14.66;51.26;100141.92;1778024;80;21062;-36
2021/09/27 11:18:12;;;;;;;2.55;1.10;;;;;;;14.68;50.87;100133.34;1788984;80;21015;-36
2021/09/27 11:20:52;;;;;;;1.62;1.10;;;;;;;14.69;51.69;100136.29;1789886;80;21031;-36
2021/09/27 11:23:27;;;;;;;1.35;0.93;;;;;;;14.73;51.39;100131.66;1776624;80;21004;-36
2021/09/27 11:26:23;;;;;;;1.40;1.20;;;;;;;14.77;51.53;100134.66;1760612;81;21119;-36
2021/09/27 11:29:04;;;;;;;1.25;0.98;;;;;;;14.84;51.38;100133.98;1760387;81;21034;-36
2021/09/27 11:31:39;;;;;;;2.80;1.40;;;;;;;14.91;51.14;100134.66;1760559;81;20952;-36
2021/09/27 11:34:32;;;;;;;1.32;1.10;;;;;;;14.95;51.07;100136.86;1760547;81;21094;-36
2021/09/27 11:37:18;;;;;;;1.52;1.10;;;;;;;14.97;50.98;100139.41;1738302;81;21011;-36
2021/09/27 11:40:08;;;;;;;1.60;1.30;;;;;;;15.02;51.12;100145.92;1760576;81;21125;-36
2021/09/27 11:42:57;;;;;;;1.82;1.40;;;;;;;14.99;50.39;100136.33;1760481;81;20956;-36
2021/09/27 11:45:29;;;;;;;2.10;1.42;;;;;;;14.93;50.50;100135.86;1716010;81;21510;-36
2021/09/27 11:48:05;;;;;;;2.37;1.32;;;;;;;14.89;50.89;100132.30;1760689;80;20956;-35
2021/09/27 11:50:48;;;;;;;1.95;1.25;;;;;;;14.88;51.47;100129.92;1760660;81;21517;-36
2021/09/27 11:53:31;;;;;;;1.70;1.10;;;;;;;14.93;51.22;100129.61;1767169;80;21147;-36
2021/09/27 11:56:13;;;;;;;1.35;1.10;;;;;;;14.94;51.04;100138.80;1792075;80;20971;-35
2021/09/27 11:58:48;;;;;;;1.15;1.00;;;;;;;14.95;51.17;100141.75;1783945;80;20987;-35
2021/09/27 12:02:04;;;;;;;3.35;1.45;;;;;;;14.98;51.09;100141.57;1791896;80;20996;-35
2021/09/27 12:04:47;;;;;;;2.52;1.00;;;;;;;14.98;51.32;100140.20;1791783;80;20928;-35
2021/09/27 12:07:15;;;;;;;1.17;1.07;;;;;;;14.98;51.56;100144.30;1791626;80;20971;-35
2021/09/27 12:10:00;;;;;;;2.12;1.07;;;;;;;14.99;51.01;100137.12;1791731;80;21035;-36
2021/09/27 12:13:56;;;;;;;1.77;1.05;;;;;;;15.10;51.53;100135.29;1829749;78;22518;-35
2021/09/27 12:16:30;;;;;;;2.02;1.20;;;;;;;15.03;51.34;100137.94;1789022;79;20949;-35
2021/09/27 12:19:01;;;;;;;1.40;1.27;;;;;;;15.04;50.78;100130.54;1773812;79;21114;-35
2021/09/27 12:21:40;;;;;;;2.00;1.17;;;;;;;15.04;51.33;100124.50;1770935;80;21566;-35
2021/09/27 12:24:11;;;;;;;2.33;1.22;;;;;;;15.07;50.98;100133.31;1771154;81;21544;-35
2021/09/27 12:27:08;;;;;;;2.10;1.40;;;;;;;15.12;51.96;100134.93;1774352;78;21530;-35
2021/09/27 12:29:52;;;;;;;2.87;1.80;;;;;;;15.16;51.24;100135.18;1838880;78;21495;-35
2021/09/27 12:32:31;;;;;;;2.85;1.50;;;;;;;15.21;51.03;100132.13;1784476;79;20957;-35